OEMA/MED METAR and TAF weather

Enter ICAO airport designator
Station Type Date Time Source
OEMA METAR 2022/06/27 18:00 UTC NOAA

OEMA 271800Z 29010KT CAVOK 39/M02 Q1008 NOSIG


Station Type Date Time Source
OEMA Decoded METAR 2022/06/27 18:00 UTC NOAA

Madinah, Saudi Arabia (OEMA) 24-33N 039-42E 636M
Jun 27, 2022 - 02:00 PM EDT / 2022.06.27 1800 UTC
Wind: from the WNW (290 degrees) at 12 MPH (10 KT):0
Visibility: greater than 7 mile(s):0
Temperature: 102 F (39 C)
Dew Point: 28 F (-2 C)
Relative Humidity: 7%
Pressure (altimeter): 29.77 in. Hg (1008 hPa)
ob: OEMA 271800Z 29010KT CAVOK 39/M02 Q1008 NOSIG
cycle: 18

Station Type Date Time Source
OEMA TAF 2022/06/27 18:33 UTC NOAA

TAF OEMA 271700Z 2718/2824 VRB03KT 7000 NSC
BECMG 2804/2806 27006KT
BECMG 2811/2814 32010KT

Example: see airport list